createdAt,value
2023-02-09T00:03:01.257Z,1.10
2023-02-09T00:08:03.408Z,1.02
2023-02-09T00:13:23.412Z,1.00
2023-02-09T00:18:26.634Z,0.95
2023-02-09T00:23:30.385Z,1.10
2023-02-09T00:28:32.481Z,0.82
2023-02-09T00:33:34.468Z,1.05
2023-02-09T00:38:36.760Z,1.15
2023-02-09T00:43:39.150Z,1.23
2023-02-09T00:48:41.064Z,1.30
2023-02-09T00:53:43.007Z,1.25
2023-02-09T00:58:45.035Z,1.10
2023-02-09T01:03:47.195Z,1.38
2023-02-09T01:08:50.922Z,1.20
2023-02-09T01:13:52.778Z,1.70
2023-02-09T01:18:56.044Z,1.50
2023-02-09T01:23:58.464Z,1.38
2023-02-09T01:29:00.425Z,1.67
2023-02-09T01:34:03.968Z,1.15
2023-02-09T01:39:06.451Z,1.25
2023-02-09T01:44:12.465Z,1.42
2023-02-09T01:49:27.768Z,1.45
2023-02-09T01:54:37.878Z,1.15
2023-02-09T01:59:43.007Z,1.90
2023-02-09T02:04:45.441Z,1.30
2023-02-09T02:09:47.977Z,1.60
2023-02-09T02:14:50.814Z,1.58
2023-02-09T02:20:11.219Z,1.70
2023-02-09T02:25:49.497Z,1.40
2023-02-09T02:31:09.823Z,1.60
2023-02-09T02:36:14.744Z,1.90
2023-02-09T02:41:22.282Z,1.65
2023-02-09T02:46:40.952Z,1.40
2023-02-09T02:51:44.796Z,1.05
2023-02-09T02:56:56.658Z,1.42
2023-02-09T03:02:26.740Z,1.10
2023-02-09T03:07:28.729Z,1.27
2023-02-09T03:12:54.535Z,1.63
2023-02-09T03:18:07.397Z,1.35
2023-02-09T03:23:17.819Z,1.55
2023-02-09T03:28:26.315Z,1.20
2023-02-09T03:33:30.291Z,1.20
2023-02-09T03:38:32.332Z,1.33
2023-02-09T03:43:52.759Z,1.50
2023-02-09T03:48:54.756Z,1.40
2023-02-09T03:53:56.596Z,1.67
2023-02-09T03:58:58.565Z,1.60
2023-02-09T04:04:02.222Z,1.90
2023-02-09T04:09:05.445Z,1.92
2023-02-09T04:14:09.247Z,1.30
2023-02-09T04:19:11.593Z,1.75
2023-02-09T04:24:13.556Z,1.55
2023-02-09T04:29:15.695Z,1.67
2023-02-09T04:34:17.750Z,1.48
2023-02-09T04:39:19.738Z,1.55
2023-02-09T04:44:21.736Z,1.70
2023-02-09T04:49:23.581Z,1.83
2023-02-09T04:54:25.509Z,1.67
2023-02-09T04:59:36.444Z,1.90
2023-02-09T05:04:38.494Z,1.65
2023-02-09T05:09:40.433Z,1.77
2023-02-09T05:14:42.468Z,1.70
2023-02-09T05:19:44.307Z,2.00
2023-02-09T05:24:46.286Z,2.00
2023-02-09T05:29:48.176Z,2.00
2023-02-09T05:34:50.135Z,2.15
2023-02-09T05:39:52.109Z,1.92
2023-02-09T05:44:54.082Z,2.70
2023-02-09T05:49:56.245Z,2.10
2023-02-09T05:54:58.120Z,2.10
2023-02-09T06:00:00.060Z,2.63
2023-02-09T06:05:01.969Z,2.13
2023-02-09T06:10:04.441Z,2.30
2023-02-09T06:15:07.052Z,2.67
2023-02-09T06:20:09.724Z,2.92
2023-02-09T06:25:11.653Z,2.95
2023-02-09T06:30:13.838Z,3.05
2023-02-09T06:35:15.848Z,2.72
2023-02-09T06:40:17.957Z,2.72
2023-02-09T06:45:19.984Z,2.35
2023-02-09T06:50:21.938Z,2.40
2023-02-09T06:55:24.076Z,3.50
2023-02-09T07:00:26.459Z,3.65
2023-02-09T07:05:28.582Z,2.53
2023-02-09T07:10:30.721Z,2.20
2023-02-09T07:15:32.867Z,2.22
2023-02-09T07:20:34.799Z,2.10
2023-02-09T07:25:36.556Z,2.20
2023-02-09T07:30:41.207Z,2.28
2023-02-09T07:35:43.302Z,3.42
2023-02-09T07:40:46.787Z,3.45
2023-02-09T07:45:49.327Z,3.75
2023-02-09T07:50:51.805Z,4.50
2023-02-09T07:55:53.939Z,3.75
2023-02-09T08:00:56.045Z,2.30
2023-02-09T08:06:20.931Z,3.65
2023-02-09T08:11:47.142Z,3.92
2023-02-09T08:16:50.262Z,3.28
2023-02-09T08:21:52.520Z,2.72
2023-02-09T08:26:55.549Z,3.00
2023-02-09T08:31:57.618Z,3.10
2023-02-09T08:36:59.564Z,2.90
2023-02-09T08:42:01.665Z,2.30
2023-02-09T08:47:04.048Z,2.58
2023-02-09T08:52:08.311Z,2.40
2023-02-09T08:57:10.292Z,2.45
2023-02-09T09:02:12.450Z,3.22
2023-02-09T09:07:14.981Z,6.43
2023-02-09T09:12:16.952Z,5.45
2023-02-09T09:17:18.913Z,4.50
2023-02-09T09:22:20.993Z,2.85
2023-02-09T09:27:24.791Z,3.28
2023-02-09T09:37:30.072Z,3.70
2023-02-09T09:42:38.632Z,3.67
2023-02-09T09:47:42.415Z,3.70
2023-02-09T09:52:48.578Z,3.50
2023-02-09T09:57:51.121Z,4.07
2023-02-09T10:02:53.370Z,2.80
2023-02-09T10:08:03.671Z,3.42
2023-02-09T10:13:13.618Z,3.58
2023-02-09T10:18:18.130Z,3.95
2023-02-09T10:23:20.058Z,4.28
2023-02-09T10:28:23.799Z,4.50
2023-02-09T10:33:26.836Z,4.20
2023-02-09T10:38:33.222Z,3.83
2023-02-09T10:43:36.407Z,8.18
2023-02-09T10:48:44.888Z,7.38
2023-02-09T10:53:56.062Z,4.30
2023-02-09T10:59:16.006Z,4.60
2023-02-09T11:04:21.765Z,4.32
2023-02-09T11:09:33.943Z,4.28
2023-02-09T11:14:35.995Z,3.92
2023-02-09T11:20:02.454Z,3.92
2023-02-09T11:25:26.994Z,3.72
2023-02-09T11:31:25.233Z,3.50
2023-02-09T11:36:58.492Z,3.00
2023-02-09T11:42:23.528Z,3.13
2023-02-09T11:47:33.476Z,3.95
2023-02-09T11:52:42.862Z,3.00
2023-02-09T11:57:50.520Z,2.63
2023-02-09T12:03:07.744Z,2.70
2023-02-09T12:08:31.262Z,2.78
2023-02-09T12:14:04.138Z,3.28
2023-02-09T12:19:30.285Z,2.90
2023-02-09T12:24:35.385Z,3.60
2023-02-09T12:34:50.743Z,3.30
2023-02-09T12:40:07.852Z,3.58
2023-02-09T12:45:36.483Z,3.00
2023-02-09T12:50:48.273Z,3.15
2023-02-09T12:56:25.334Z,3.47
2023-02-09T13:02:06.806Z,3.53
2023-02-09T13:07:50.832Z,3.20
2023-02-09T13:12:57.049Z,3.70
2023-02-09T13:18:14.450Z,3.80
2023-02-09T13:23:16.589Z,3.47
2023-02-09T13:28:22.714Z,3.20
2023-02-09T13:33:48.159Z,3.67
2023-02-09T13:38:50.193Z,3.58
2023-02-09T13:43:52.113Z,3.33
2023-02-09T13:48:54.336Z,3.63
2023-02-09T13:54:01.815Z,3.00
2023-02-09T13:59:04.192Z,3.40
2023-02-09T14:04:16.789Z,3.42
2023-02-09T14:09:22.588Z,3.47
2023-02-09T14:14:27.268Z,3.05
2023-02-09T14:19:32.400Z,2.33
2023-02-09T14:24:43.817Z,2.15
2023-02-09T14:34:48.685Z,2.08
2023-02-09T14:39:55.632Z,4.15
2023-02-09T14:44:59.699Z,1.65
2023-02-09T14:50:02.620Z,2.15
2023-02-09T14:55:06.956Z,3.33
2023-02-09T15:00:26.270Z,1.27
2023-02-09T15:05:28.774Z,1.60
2023-02-09T15:10:33.496Z,2.22
2023-02-09T15:15:37.819Z,1.70
2023-02-09T15:20:39.798Z,1.95
2023-02-09T15:25:42.400Z,2.03
2023-02-09T15:30:44.548Z,2.00
2023-02-09T15:35:47.233Z,2.25
2023-02-09T15:41:09.005Z,2.08
2023-02-09T15:46:29.801Z,2.25
2023-02-09T15:51:37.288Z,2.15
2023-02-09T15:56:39.539Z,2.78
2023-02-09T16:01:42.133Z,1.73
2023-02-09T16:06:47.491Z,1.70
2023-02-09T16:11:49.908Z,1.73
2023-02-09T16:16:55.366Z,1.77
2023-02-09T16:21:59.048Z,1.55
2023-02-09T16:27:02.772Z,1.63
2023-02-09T16:32:09.812Z,1.20
2023-02-09T16:37:15.331Z,1.35
2023-02-09T16:42:17.330Z,1.80
2023-02-09T16:47:22.483Z,1.80
2023-02-09T16:52:26.193Z,1.95
2023-02-09T16:57:28.860Z,2.20
2023-02-09T17:02:38.196Z,2.70
2023-02-09T17:07:53.528Z,2.20
2023-02-09T17:12:57.221Z,2.08
2023-02-09T17:18:08.792Z,3.05
2023-02-09T17:23:15.303Z,2.13
2023-02-09T17:28:19.550Z,2.25
2023-02-09T17:33:27.905Z,1.85
2023-02-09T17:38:32.566Z,1.88
2023-02-09T17:43:34.674Z,2.05
2023-02-09T17:48:36.748Z,1.77
2023-02-09T17:53:38.621Z,1.30
2023-02-09T17:58:44.321Z,1.95
2023-02-09T18:03:46.511Z,1.60
2023-02-09T18:08:48.536Z,1.90
2023-02-09T18:13:50.516Z,1.70
2023-02-09T18:18:52.437Z,1.80
2023-02-09T18:23:54.307Z,2.10
2023-02-09T18:28:56.689Z,3.10
2023-02-09T18:33:58.563Z,2.67
2023-02-09T18:39:00.631Z,3.20
2023-02-09T18:44:02.504Z,2.72
2023-02-09T18:49:04.741Z,2.33
2023-02-09T18:54:07.003Z,2.50
2023-02-09T18:59:08.939Z,3.13
2023-02-09T19:04:10.865Z,4.10
2023-02-09T19:09:12.761Z,3.90
2023-02-09T19:14:33.367Z,3.42
2023-02-09T19:19:35.469Z,5.00
2023-02-09T19:24:37.509Z,3.80
2023-02-09T19:29:41.504Z,4.00
2023-02-09T19:34:45.615Z,3.50
2023-02-09T19:40:00.688Z,3.78
2023-02-09T19:45:03.399Z,3.33
2023-02-09T19:50:05.671Z,2.38
2023-02-09T19:55:08.217Z,2.35
2023-02-09T20:00:14.849Z,3.38
2023-02-09T20:05:17.852Z,2.67
2023-02-09T20:10:21.806Z,2.55
2023-02-09T20:15:23.772Z,2.45
2023-02-09T20:20:25.897Z,2.28
2023-02-09T20:25:28.006Z,2.15
2023-02-09T20:30:31.374Z,2.47
2023-02-09T20:35:33.716Z,2.40
2023-02-09T20:40:36.289Z,5.05
2023-02-09T20:45:56.959Z,4.40
2023-02-09T20:50:58.927Z,2.40
2023-02-09T20:56:00.865Z,2.38
2023-02-09T21:01:02.862Z,1.95
2023-02-09T21:11:08.200Z,2.90
2023-02-09T21:16:11.733Z,3.45
2023-02-09T21:21:16.385Z,2.72
2023-02-09T21:26:20.105Z,3.58
2023-02-09T21:31:24.700Z,2.92
2023-02-09T21:36:26.610Z,3.22
2023-02-09T21:41:47.046Z,2.72
2023-02-09T21:46:50.338Z,2.65
2023-02-09T21:51:52.371Z,2.70
2023-02-09T21:56:54.385Z,1.90
2023-02-09T22:01:56.379Z,2.13
2023-02-09T22:06:58.392Z,3.25
2023-02-09T22:12:00.419Z,2.20
2023-02-09T22:17:05.242Z,1.90
2023-02-09T22:22:07.369Z,2.33
2023-02-09T22:27:09.628Z,2.60
2023-02-09T22:32:11.776Z,3.22
2023-02-09T22:37:13.770Z,3.30
2023-02-09T22:42:15.914Z,2.83
2023-02-09T22:47:17.895Z,2.28
2023-02-09T22:52:19.797Z,2.90
2023-02-09T22:57:27.014Z,2.58
2023-02-09T23:02:29.023Z,2.45
2023-02-09T23:07:30.930Z,3.00
2023-02-09T23:12:32.970Z,2.47
2023-02-09T23:17:35.130Z,2.40
2023-02-09T23:22:37.142Z,2.63
2023-02-09T23:27:39.139Z,2.22
2023-02-09T23:32:41.201Z,2.38
2023-02-09T23:37:45.243Z,2.47
2023-02-09T23:42:47.238Z,1.52
2023-02-09T23:47:49.982Z,1.67
2023-02-09T23:52:51.816Z,1.65
2023-02-09T23:57:53.800Z,1.38
